Streator West, Illinois
Current Conditions -  °F | °C
As of 8:35 AM on Thursday 23 Oct 2014 (Local Time) from KPNT Reporting Station
Haze Haze  
Wind Chill: 38°   Ceiling: Unl
Heat Index: 38°   Visibility: 5mi
Dew Point: 36°   Wind: 3mph
Humidity: 95%   Direction: 140°SE
Pressure: 30.23"   Gusts: NA
Location:  41.1182°N, 88.8294°W
Report Text: KPNT 231335Z AUTO 14003KT 5SM BR CLR 03/02 A3023 RMK AO2 T00310024
Loading
Personal Weather Stations






























Interactive Weather Map
Tropical Storm Tracking
New forecast layout! Learn more

10-Day Weather Forecast

Advertisements
Track Severe Weather on mobile